Thursday, October 18, 2018, 2:13 PM GMT
Back to Local

CWIG, Ile Aux Grues, Que.

Location: , , Canada Lat: 47.067
Local Time: 2:13 PM GMT (14:13 GMT) Lon: -70.533
Time Zone: GMT Elev: 59 ft

Show me the last for .
Show Coded

Time T Td Feel RH Dir Speed Gust Alt SLP Vis Weather Sky Remarks
2018-10-18 13:00 - - - 0 260° 15 22 - - 0 Peak wind: 25 mph (22 kts) from 290° at 18 min
2018-10-18 12:00 - - - 0 280° 17 26 - - 0 Peak wind: 26 mph (23 kts) from 270° at 18 min
2018-10-18 11:00 - - - 0 280° 14 22 - - 0 Peak wind: 29 mph (26 kts) from 310° at 38 min
2018-10-18 10:00 - - - 0 280° 15 25 - - 0 Peak wind: 28 mph (25 kts) from 260° at 18 min
2018-10-18 09:00 - - - 0 270° 16 24 - - 0 Peak wind: 26 mph (23 kts) from 290° at 40 min
2018-10-18 08:00 - - - 0 270° 14 21 - - 0 Peak wind: 21 mph (19 kts) from 260° at 13 min
2018-10-18 07:00 - - - 0 300° 14 21 - - 0 Peak wind: 21 mph (19 kts) from 300° at 40 min
2018-10-18 06:00 - - - 0 280° 12 - - - 0 None
2018-10-18 05:00 - - - 0 270° 12 - - - 0 Peak wind: 21 mph (19 kts) from 300° at 20 min
2018-10-18 04:00 - - - 0 280° 10 - - - 0 None
2018-10-18 03:00 - - - 0 280° 10 17 - - 0 None
2018-10-18 02:00 - - - 0 290° 9 - - - 0 Peak wind: 20 mph (18 kts) from 270° at 04 min
2018-10-18 01:00 - - - 0 290° 10 20 - - 0 Peak wind: 19 mph (17 kts) from 270° at 53 min
2018-10-18 00:00 - - - 0 290° 7 - - - 0 Peak wind: 20 mph (18 kts) from 280° at 04 min
2018-10-17 23:00 - - - 0 260° 16 26 - - 0 Peak wind: 26 mph (23 kts) from 270° at 57 min
2018-10-17 22:00 - - - 0 290° 14 21 - - 0 Peak wind: 24 mph (21 kts) from 270° at 03 min
2018-10-17 21:00 - - - 0 270° 17 23 - - 0 Peak wind: 27 mph (24 kts) from 250° at 16 min
2018-10-17 20:00 - - - 0 220° 16 22 - - 0 Peak wind: 21 mph (19 kts) from 210° at 57 min
2018-10-17 19:00 - - - 0 290° 12 18 - - 0 Peak wind: 34 mph (30 kts) from 310° at 47 min
2018-10-17 18:00 - - - 0 230° 15 22 - - 0 Peak wind: 35 mph (31 kts) from 260° at 16 min
2018-10-17 17:00 - - - 0 230° 21 28 - - 0 Peak wind: 27 mph (24 kts) from 220° at 48 min
2018-10-17 16:00 - - - 0 230° 17 24 - - 0 Peak wind: 28 mph (25 kts) from 230° at 34 min
2018-10-17 15:00 - - - 0 210° 17 26 - - 0 Peak wind: 28 mph (25 kts) from 200° at 04 min

Support USWX by starting your Amazon purchase here.